sensor_id;sensor_type;location;lat;lon;timestamp;P1;durP1;ratioP1;P2;durP2;ratioP2
48859;SDS011;34679;51.436;-2.518;2024-02-21T00:00:54;16.92;;;4.78;;
48859;SDS011;34679;51.436;-2.518;2024-02-21T00:03:20;13.60;;;2.83;;
48859;SDS011;34679;51.436;-2.518;2024-02-21T00:05:46;21.48;;;4.47;;
48859;SDS011;34679;51.436;-2.518;2024-02-21T00:08:12;26.25;;;3.35;;
48859;SDS011;34679;51.436;-2.518;2024-02-21T00:10:38;16.20;;;3.47;;
48859;SDS011;34679;51.436;-2.518;2024-02-21T00:13:03;25.75;;;4.57;;
48859;SDS011;34679;51.436;-2.518;2024-02-21T00:15:29;18.35;;;3.30;;
48859;SDS011;34679;51.436;-2.518;2024-02-21T00:17:55;21.70;;;3.28;;
48859;SDS011;34679;51.436;-2.518;2024-02-21T00:20:21;25.33;;;3.88;;
48859;SDS011;34679;51.436;-2.518;2024-02-21T00:22:46;24.90;;;3.75;;
48859;SDS011;34679;51.436;-2.518;2024-02-21T00:25:12;26.92;;;5.18;;
48859;SDS011;34679;51.436;-2.518;2024-02-21T00:27:38;18.60;;;3.00;;
48859;SDS011;34679;51.436;-2.518;2024-02-21T00:30:04;26.52;;;4.60;;
48859;SDS011;34679;51.436;-2.518;2024-02-21T00:32:31;19.15;;;3.53;;
48859;SDS011;34679;51.436;-2.518;2024-02-21T00:34:59;22.73;;;4.43;;
48859;SDS011;34679;51.436;-2.518;2024-02-21T00:37:25;20.17;;;3.50;;
48859;SDS011;34679;51.436;-2.518;2024-02-21T00:39:50;22.08;;;3.60;;
48859;SDS011;34679;51.436;-2.518;2024-02-21T00:42:16;22.17;;;3.35;;
48859;SDS011;34679;51.436;-2.518;2024-02-21T00:44:42;14.82;;;2.78;;
48859;SDS011;34679;51.436;-2.518;2024-02-21T00:47:10;13.02;;;2.42;;
48859;SDS011;34679;51.436;-2.518;2024-02-21T00:49:36;17.33;;;3.13;;
48859;SDS011;34679;51.436;-2.518;2024-02-21T00:52:01;18.95;;;2.40;;
48859;SDS011;34679;51.436;-2.518;2024-02-21T00:54:27;15.35;;;2.30;;
48859;SDS011;34679;51.436;-2.518;2024-02-21T00:56:53;14.65;;;2.55;;
48859;SDS011;34679;51.436;-2.518;2024-02-21T00:59:19;5.15;;;1.65;;
48859;SDS011;34679;51.436;-2.518;2024-02-21T01:01:44;11.15;;;2.22;;
48859;SDS011;34679;51.436;-2.518;2024-02-21T01:04:10;11.73;;;2.28;;
48859;SDS011;34679;51.436;-2.518;2024-02-21T01:06:36;17.83;;;1.90;;
48859;SDS011;34679;51.436;-2.518;2024-02-21T01:09:01;11.88;;;2.35;;
48859;SDS011;34679;51.436;-2.518;2024-02-21T01:11:27;11.63;;;2.03;;
48859;SDS011;34679;51.436;-2.518;2024-02-21T01:13:53;9.25;;;1.98;;
48859;SDS011;34679;51.436;-2.518;2024-02-21T01:16:20;9.70;;;2.10;;
48859;SDS011;34679;51.436;-2.518;2024-02-21T01:18:46;12.60;;;2.08;;
48859;SDS011;34679;51.436;-2.518;2024-02-21T01:21:12;7.47;;;2.05;;
48859;SDS011;34679;51.436;-2.518;2024-02-21T01:23:38;13.48;;;2.60;;
48859;SDS011;34679;51.436;-2.518;2024-02-21T01:26:04;12.68;;;2.80;;
48859;SDS011;34679;51.436;-2.518;2024-02-21T01:28:30;12.18;;;2.03;;
48859;SDS011;34679;51.436;-2.518;2024-02-21T01:30:56;13.38;;;1.80;;
48859;SDS011;34679;51.436;-2.518;2024-02-21T01:33:22;12.98;;;3.42;;
48859;SDS011;34679;51.436;-2.518;2024-02-21T01:35:48;13.88;;;2.25;;
48859;SDS011;34679;51.436;-2.518;2024-02-21T01:38:15;13.18;;;2.65;;
48859;SDS011;34679;51.436;-2.518;2024-02-21T01:40:40;8.07;;;2.33;;
48859;SDS011;34679;51.436;-2.518;2024-02-21T01:43:15;12.73;;;2.20;;
48859;SDS011;34679;51.436;-2.518;2024-02-21T01:45:42;11.90;;;2.03;;
48859;SDS011;34679;51.436;-2.518;2024-02-21T01:48:11;11.70;;;3.10;;
48859;SDS011;34679;51.436;-2.518;2024-02-21T01:50:38;12.25;;;2.28;;
48859;SDS011;34679;51.436;-2.518;2024-02-21T01:53:04;14.45;;;2.47;;
48859;SDS011;34679;51.436;-2.518;2024-02-21T01:55:30;10.15;;;2.15;;
48859;SDS011;34679;51.436;-2.518;2024-02-21T01:57:56;14.98;;;2.67;;
48859;SDS011;34679;51.436;-2.518;2024-02-21T02:00:25;16.85;;;3.88;;
48859;SDS011;34679;51.436;-2.518;2024-02-21T02:02:51;14.02;;;2.65;;
48859;SDS011;34679;51.436;-2.518;2024-02-21T02:05:18;10.73;;;2.88;;
48859;SDS011;34679;51.436;-2.518;2024-02-21T02:07:46;11.95;;;2.45;;
48859;SDS011;34679;51.436;-2.518;2024-02-21T02:10:12;17.95;;;2.50;;
48859;SDS011;34679;51.436;-2.518;2024-02-21T02:12:38;12.25;;;2.60;;
48859;SDS011;34679;51.436;-2.518;2024-02-21T02:15:04;14.50;;;2.22;;
48859;SDS011;34679;51.436;-2.518;2024-02-21T02:17:30;21.02;;;3.45;;
48859;SDS011;34679;51.436;-2.518;2024-02-21T02:19:56;17.65;;;2.72;;
48859;SDS011;34679;51.436;-2.518;2024-02-21T02:22:22;14.82;;;3.58;;
48859;SDS011;34679;51.436;-2.518;2024-02-21T02:24:53;12.35;;;2.25;;
48859;SDS011;34679;51.436;-2.518;2024-02-21T02:27:18;14.45;;;2.60;;
48859;SDS011;34679;51.436;-2.518;2024-02-21T02:29:44;15.95;;;2.90;;
48859;SDS011;34679;51.436;-2.518;2024-02-21T02:32:10;11.00;;;2.72;;
48859;SDS011;34679;51.436;-2.518;2024-02-21T02:34:36;9.43;;;2.35;;
48859;SDS011;34679;51.436;-2.518;2024-02-21T02:37:01;11.15;;;2.53;;
48859;SDS011;34679;51.436;-2.518;2024-02-21T02:39:27;11.57;;;2.15;;
48859;SDS011;34679;51.436;-2.518;2024-02-21T02:41:53;10.15;;;2.20;;
48859;SDS011;34679;51.436;-2.518;2024-02-21T02:47:41;10.35;;;1.98;;
48859;SDS011;34679;51.436;-2.518;2024-02-21T02:50:09;10.80;;;2.63;;
48859;SDS011;34679;51.436;-2.518;2024-02-21T02:52:35;5.65;;;1.70;;
48859;SDS011;34679;51.436;-2.518;2024-02-21T02:55:00;7.32;;;1.42;;
48859;SDS011;34679;51.436;-2.518;2024-02-21T02:57:27;11.45;;;1.95;;
48859;SDS011;34679;51.436;-2.518;2024-02-21T02:59:52;4.70;;;1.42;;
48859;SDS011;34679;51.436;-2.518;2024-02-21T03:02:18;7.22;;;1.88;;
48859;SDS011;34679;51.436;-2.518;2024-02-21T03:04:44;8.13;;;2.28;;
48859;SDS011;34679;51.436;-2.518;2024-02-21T03:07:11;12.52;;;1.98;;
48859;SDS011;34679;51.436;-2.518;2024-02-21T03:09:37;11.23;;;2.08;;
48859;SDS011;34679;51.436;-2.518;2024-02-21T03:12:03;16.83;;;2.35;;
48859;SDS011;34679;51.436;-2.518;2024-02-21T03:14:31;7.82;;;2.22;;
48859;SDS011;34679;51.436;-2.518;2024-02-21T03:17:00;10.00;;;1.95;;
48859;SDS011;34679;51.436;-2.518;2024-02-21T03:19:27;6.53;;;1.95;;
48859;SDS011;34679;51.436;-2.518;2024-02-21T03:21:53;7.82;;;1.95;;
48859;SDS011;34679;51.436;-2.518;2024-02-21T03:24:19;10.88;;;1.83;;
48859;SDS011;34679;51.436;-2.518;2024-02-21T03:26:46;12.52;;;1.77;;
48859;SDS011;34679;51.436;-2.518;2024-02-21T03:29:16;11.27;;;2.80;;
48859;SDS011;34679;51.436;-2.518;2024-02-21T03:31:42;9.85;;;2.25;;
48859;SDS011;34679;51.436;-2.518;2024-02-21T03:34:11;7.72;;;1.67;;
48859;SDS011;34679;51.436;-2.518;2024-02-21T03:36:37;9.35;;;2.00;;
48859;SDS011;34679;51.436;-2.518;2024-02-21T03:39:03;7.43;;;1.75;;
48859;SDS011;34679;51.436;-2.518;2024-02-21T03:41:29;12.45;;;2.00;;
48859;SDS011;34679;51.436;-2.518;2024-02-21T03:43:55;8.07;;;1.92;;
48859;SDS011;34679;51.436;-2.518;2024-02-21T03:46:20;11.50;;;1.80;;
48859;SDS011;34679;51.436;-2.518;2024-02-21T03:48:46;12.20;;;2.10;;
48859;SDS011;34679;51.436;-2.518;2024-02-21T03:51:12;7.80;;;1.60;;
48859;SDS011;34679;51.436;-2.518;2024-02-21T03:53:38;11.20;;;2.38;;
48859;SDS011;34679;51.436;-2.518;2024-02-21T03:56:04;5.80;;;1.60;;
48859;SDS011;34679;51.436;-2.518;2024-02-21T03:58:30;14.32;;;1.90;;
48859;SDS011;34679;51.436;-2.518;2024-02-21T04:00:56;12.73;;;2.42;;
48859;SDS011;34679;51.436;-2.518;2024-02-21T04:03:22;7.90;;;1.92;;
48859;SDS011;34679;51.436;-2.518;2024-02-21T04:05:48;9.82;;;1.63;;
48859;SDS011;34679;51.436;-2.518;2024-02-21T04:08:13;10.77;;;2.10;;
48859;SDS011;34679;51.436;-2.518;2024-02-21T04:10:39;13.25;;;1.90;;
48859;SDS011;34679;51.436;-2.518;2024-02-21T04:13:06;8.70;;;2.25;;
48859;SDS011;34679;51.436;-2.518;2024-02-21T04:15:32;9.93;;;1.65;;
48859;SDS011;34679;51.436;-2.518;2024-02-21T04:17:58;8.02;;;1.83;;
48859;SDS011;34679;51.436;-2.518;2024-02-21T04:20:23;5.22;;;1.63;;
48859;SDS011;34679;51.436;-2.518;2024-02-21T04:22:49;6.72;;;1.75;;
48859;SDS011;34679;51.436;-2.518;2024-02-21T04:25:15;10.55;;;1.90;;
48859;SDS011;34679;51.436;-2.518;2024-02-21T04:27:41;10.90;;;2.58;;
48859;SDS011;34679;51.436;-2.518;2024-02-21T04:30:07;7.93;;;2.10;;
48859;SDS011;34679;51.436;-2.518;2024-02-21T04:32:34;5.78;;;2.05;;
48859;SDS011;34679;51.436;-2.518;2024-02-21T04:35:00;7.65;;;1.73;;
48859;SDS011;34679;51.436;-2.518;2024-02-21T04:37:26;8.55;;;1.90;;
48859;SDS011;34679;51.436;-2.518;2024-02-21T04:39:52;8.15;;;2.00;;
48859;SDS011;34679;51.436;-2.518;2024-02-21T04:42:18;15.80;;;2.03;;
48859;SDS011;34679;51.436;-2.518;2024-02-21T04:44:43;6.38;;;1.85;;
48859;SDS011;34679;51.436;-2.518;2024-02-21T04:47:09;10.90;;;2.60;;
48859;SDS011;34679;51.436;-2.518;2024-02-21T04:49:35;9.00;;;2.53;;
48859;SDS011;34679;51.436;-2.518;2024-02-21T04:52:01;15.68;;;3.35;;
48859;SDS011;34679;51.436;-2.518;2024-02-21T04:54:27;6.63;;;2.13;;
48859;SDS011;34679;51.436;-2.518;2024-02-21T04:56:52;12.25;;;2.22;;
48859;SDS011;34679;51.436;-2.518;2024-02-21T04:59:18;8.77;;;2.33;;
48859;SDS011;34679;51.436;-2.518;2024-02-21T05:01:44;11.75;;;2.35;;
48859;SDS011;34679;51.436;-2.518;2024-02-21T05:04:10;9.57;;;2.58;;
48859;SDS011;34679;51.436;-2.518;2024-02-21T05:06:39;8.65;;;2.05;;
48859;SDS011;34679;51.436;-2.518;2024-02-21T05:09:06;9.82;;;1.88;;
48859;SDS011;34679;51.436;-2.518;2024-02-21T05:11:32;10.85;;;2.10;;
48859;SDS011;34679;51.436;-2.518;2024-02-21T05:13:57;5.68;;;1.52;;
48859;SDS011;34679;51.436;-2.518;2024-02-21T05:16:23;5.82;;;1.10;;
48859;SDS011;34679;51.436;-2.518;2024-02-21T05:18:49;8.02;;;1.50;;
48859;SDS011;34679;51.436;-2.518;2024-02-21T05:21:14;10.95;;;1.40;;
48859;SDS011;34679;51.436;-2.518;2024-02-21T05:23:40;10.15;;;2.03;;
48859;SDS011;34679;51.436;-2.518;2024-02-21T05:26:06;8.93;;;1.80;;
48859;SDS011;34679;51.436;-2.518;2024-02-21T05:28:32;7.20;;;2.28;;
48859;SDS011;34679;51.436;-2.518;2024-02-21T05:30:58;10.27;;;1.70;;
48859;SDS011;34679;51.436;-2.518;2024-02-21T05:33:24;10.07;;;1.73;;
48859;SDS011;34679;51.436;-2.518;2024-02-21T05:35:50;11.43;;;1.42;;
48859;SDS011;34679;51.436;-2.518;2024-02-21T05:38:16;10.45;;;1.48;;
48859;SDS011;34679;51.436;-2.518;2024-02-21T05:40:42;8.90;;;1.33;;
48859;SDS011;34679;51.436;-2.518;2024-02-21T05:43:08;9.60;;;1.65;;
48859;SDS011;34679;51.436;-2.518;2024-02-21T05:45:34;13.63;;;1.63;;
48859;SDS011;34679;51.436;-2.518;2024-02-21T05:47:59;5.68;;;1.60;;
48859;SDS011;34679;51.436;-2.518;2024-02-21T05:50:25;6.55;;;2.00;;
48859;SDS011;34679;51.436;-2.518;2024-02-21T05:52:54;10.68;;;2.00;;
48859;SDS011;34679;51.436;-2.518;2024-02-21T05:55:20;6.80;;;1.95;;
48859;SDS011;34679;51.436;-2.518;2024-02-21T05:57:46;7.60;;;1.60;;
48859;SDS011;34679;51.436;-2.518;2024-02-21T06:00:12;6.82;;;1.55;;
48859;SDS011;34679;51.436;-2.518;2024-02-21T06:02:39;7.85;;;2.05;;
48859;SDS011;34679;51.436;-2.518;2024-02-21T06:05:05;5.53;;;0.80;;
48859;SDS011;34679;51.436;-2.518;2024-02-21T06:07:34;6.60;;;1.38;;
48859;SDS011;34679;51.436;-2.518;2024-02-21T06:10:01;6.53;;;1.67;;
48859;SDS011;34679;51.436;-2.518;2024-02-21T06:12:28;6.10;;;1.08;;
48859;SDS011;34679;51.436;-2.518;2024-02-21T06:14:53;5.82;;;1.13;;
48859;SDS011;34679;51.436;-2.518;2024-02-21T06:17:19;8.38;;;1.45;;
48859;SDS011;34679;51.436;-2.518;2024-02-21T06:19:45;5.78;;;1.08;;
48859;SDS011;34679;51.436;-2.518;2024-02-21T06:22:11;6.47;;;1.50;;
48859;SDS011;34679;51.436;-2.518;2024-02-21T06:24:37;5.63;;;1.50;;
48859;SDS011;34679;51.436;-2.518;2024-02-21T06:27:04;11.60;;;2.00;;
48859;SDS011;34679;51.436;-2.518;2024-02-21T06:29:33;4.75;;;1.58;;
48859;SDS011;34679;51.436;-2.518;2024-02-21T06:31:59;8.18;;;1.50;;
48859;SDS011;34679;51.436;-2.518;2024-02-21T06:34:25;5.60;;;1.23;;
48859;SDS011;34679;51.436;-2.518;2024-02-21T06:36:50;4.45;;;1.05;;
48859;SDS011;34679;51.436;-2.518;2024-02-21T06:39:16;9.45;;;1.35;;
48859;SDS011;34679;51.436;-2.518;2024-02-21T06:41:42;10.77;;;2.40;;
48859;SDS011;34679;51.436;-2.518;2024-02-21T06:44:08;5.72;;;1.25;;
48859;SDS011;34679;51.436;-2.518;2024-02-21T06:49:56;8.13;;;1.77;;
48859;SDS011;34679;51.436;-2.518;2024-02-21T06:52:21;7.00;;;1.55;;
48859;SDS011;34679;51.436;-2.518;2024-02-21T06:54:48;15.93;;;1.88;;
48859;SDS011;34679;51.436;-2.518;2024-02-21T06:57:14;7.85;;;1.38;;
48859;SDS011;34679;51.436;-2.518;2024-02-21T06:59:41;5.80;;;1.30;;
48859;SDS011;34679;51.436;-2.518;2024-02-21T07:02:07;8.80;;;1.35;;
48859;SDS011;34679;51.436;-2.518;2024-02-21T07:04:33;8.07;;;1.27;;
48859;SDS011;34679;51.436;-2.518;2024-02-21T07:06:59;6.88;;;1.52;;
48859;SDS011;34679;51.436;-2.518;2024-02-21T07:09:25;11.68;;;2.65;;
48859;SDS011;34679;51.436;-2.518;2024-02-21T07:11:51;11.02;;;1.98;;
48859;SDS011;34679;51.436;-2.518;2024-02-21T07:14:18;7.47;;;1.88;;
48859;SDS011;34679;51.436;-2.518;2024-02-21T07:16:44;5.57;;;1.27;;
48859;SDS011;34679;51.436;-2.518;2024-02-21T07:19:09;5.65;;;1.30;;
48859;SDS011;34679;51.436;-2.518;2024-02-21T07:24:57;9.82;;;2.53;;
48859;SDS011;34679;51.436;-2.518;2024-02-21T07:27:23;10.07;;;1.30;;
48859;SDS011;34679;51.436;-2.518;2024-02-21T07:29:52;7.53;;;1.20;;
48859;SDS011;34679;51.436;-2.518;2024-02-21T07:32:19;5.05;;;1.30;;
48859;SDS011;34679;51.436;-2.518;2024-02-21T07:34:44;7.57;;;1.40;;
48859;SDS011;34679;51.436;-2.518;2024-02-21T07:37:10;5.38;;;1.15;;
48859;SDS011;34679;51.436;-2.518;2024-02-21T07:39:36;9.05;;;1.52;;
48859;SDS011;34679;51.436;-2.518;2024-02-21T07:42:04;7.50;;;1.30;;
48859;SDS011;34679;51.436;-2.518;2024-02-21T07:44:31;6.10;;;0.98;;
48859;SDS011;34679;51.436;-2.518;2024-02-21T07:46:57;3.95;;;0.82;;
48859;SDS011;34679;51.436;-2.518;2024-02-21T07:49:23;7.18;;;1.25;;
48859;SDS011;34679;51.436;-2.518;2024-02-21T07:51:49;7.63;;;1.00;;
48859;SDS011;34679;51.436;-2.518;2024-02-21T07:54:15;11.95;;;1.45;;
48859;SDS011;34679;51.436;-2.518;2024-02-21T07:56:41;4.50;;;1.17;;
48859;SDS011;34679;51.436;-2.518;2024-02-21T07:59:06;3.85;;;0.77;;
48859;SDS011;34679;51.436;-2.518;2024-02-21T08:01:33;8.50;;;1.20;;
48859;SDS011;34679;51.436;-2.518;2024-02-21T08:03:58;1.08;;;0.50;;
48859;SDS011;34679;51.436;-2.518;2024-02-21T08:06:24;2.30;;;0.90;;
48859;SDS011;34679;51.436;-2.518;2024-02-21T08:08:50;5.93;;;0.73;;
48859;SDS011;34679;51.436;-2.518;2024-02-21T08:11:16;5.57;;;0.68;;
48859;SDS011;34679;51.436;-2.518;2024-02-21T08:13:41;2.78;;;1.00;;
48859;SDS011;34679;51.436;-2.518;2024-02-21T08:16:07;3.28;;;0.60;;
48859;SDS011;34679;51.436;-2.518;2024-02-21T08:18:33;5.28;;;1.25;;
48859;SDS011;34679;51.436;-2.518;2024-02-21T08:21:01;4.45;;;0.88;;
48859;SDS011;34679;51.436;-2.518;2024-02-21T08:23:28;1.70;;;0.80;;
48859;SDS011;34679;51.436;-2.518;2024-02-21T08:25:54;2.25;;;0.73;;
48859;SDS011;34679;51.436;-2.518;2024-02-21T08:28:20;4.55;;;0.70;;
48859;SDS011;34679;51.436;-2.518;2024-02-21T08:30:45;2.47;;;0.70;;
48859;SDS011;34679;51.436;-2.518;2024-02-21T08:33:14;0.65;;;0.40;;
48859;SDS011;34679;51.436;-2.518;2024-02-21T08:35:41;1.67;;;0.50;;
48859;SDS011;34679;51.436;-2.518;2024-02-21T08:38:07;3.33;;;1.00;;
48859;SDS011;34679;51.436;-2.518;2024-02-21T08:40:33;3.35;;;0.60;;
48859;SDS011;34679;51.436;-2.518;2024-02-21T08:43:00;1.48;;;0.45;;
48859;SDS011;34679;51.436;-2.518;2024-02-21T08:45:26;5.28;;;1.02;;
48859;SDS011;34679;51.436;-2.518;2024-02-21T08:47:52;7.18;;;0.70;;
48859;SDS011;34679;51.436;-2.518;2024-02-21T08:50:17;4.65;;;0.65;;
48859;SDS011;34679;51.436;-2.518;2024-02-21T08:52:43;1.70;;;0.60;;
48859;SDS011;34679;51.436;-2.518;2024-02-21T08:55:09;7.80;;;0.73;;
48859;SDS011;34679;51.436;-2.518;2024-02-21T08:57:34;4.05;;;0.60;;
48859;SDS011;34679;51.436;-2.518;2024-02-21T09:00:04;3.05;;;0.52;;
48859;SDS011;34679;51.436;-2.518;2024-02-21T09:02:43;3.80;;;0.77;;
48859;SDS011;34679;51.436;-2.518;2024-02-21T09:05:09;2.15;;;0.68;;
48859;SDS011;34679;51.436;-2.518;2024-02-21T09:07:35;2.00;;;0.68;;
48859;SDS011;34679;51.436;-2.518;2024-02-21T09:10:01;3.80;;;0.80;;
48859;SDS011;34679;51.436;-2.518;2024-02-21T09:12:26;1.27;;;0.40;;
48859;SDS011;34679;51.436;-2.518;2024-02-21T09:14:52;1.30;;;0.50;;
48859;SDS011;34679;51.436;-2.518;2024-02-21T09:17:18;2.55;;;0.47;;
48859;SDS011;34679;51.436;-2.518;2024-02-21T09:19:45;1.88;;;0.60;;
48859;SDS011;34679;51.436;-2.518;2024-02-21T09:22:12;3.00;;;1.23;;
48859;SDS011;34679;51.436;-2.518;2024-02-21T09:24:37;2.10;;;0.40;;
48859;SDS011;34679;51.436;-2.518;2024-02-21T09:27:03;3.60;;;0.55;;
48859;SDS011;34679;51.436;-2.518;2024-02-21T09:29:30;1.70;;;0.40;;
48859;SDS011;34679;51.436;-2.518;2024-02-21T09:31:58;2.03;;;0.32;;
48859;SDS011;34679;51.436;-2.518;2024-02-21T09:34:24;4.38;;;0.55;;
48859;SDS011;34679;51.436;-2.518;2024-02-21T09:36:50;2.42;;;0.63;;
48859;SDS011;34679;51.436;-2.518;2024-02-21T09:39:15;4.95;;;1.23;;
48859;SDS011;34679;51.436;-2.518;2024-02-21T09:41:45;1.65;;;1.02;;
48859;SDS011;34679;51.436;-2.518;2024-02-21T09:44:17;1.80;;;0.40;;
48859;SDS011;34679;51.436;-2.518;2024-02-21T09:47:04;2.88;;;0.40;;
48859;SDS011;34679;51.436;-2.518;2024-02-21T09:49:35;2.58;;;0.40;;
48859;SDS011;34679;51.436;-2.518;2024-02-21T09:52:07;2.00;;;0.50;;
48859;SDS011;34679;51.436;-2.518;2024-02-21T09:54:33;2.15;;;0.32;;
48859;SDS011;34679;51.436;-2.518;2024-02-21T09:57:00;4.93;;;0.73;;
48859;SDS011;34679;51.436;-2.518;2024-02-21T09:59:30;2.83;;;0.50;;
48859;SDS011;34679;51.436;-2.518;2024-02-21T10:01:57;2.65;;;0.40;;
48859;SDS011;34679;51.436;-2.518;2024-02-21T10:04:26;2.25;;;0.45;;
48859;SDS011;34679;51.436;-2.518;2024-02-21T10:06:55;1.80;;;0.55;;
48859;SDS011;34679;51.436;-2.518;2024-02-21T10:12:30;1.55;;;0.57;;
48859;SDS011;34679;51.436;-2.518;2024-02-21T10:15:02;1.63;;;0.47;;
48859;SDS011;34679;51.436;-2.518;2024-02-21T10:17:28;0.80;;;0.40;;
48859;SDS011;34679;51.436;-2.518;2024-02-21T10:19:54;1.80;;;0.43;;
48859;SDS011;34679;51.436;-2.518;2024-02-21T10:22:20;3.17;;;0.30;;
48859;SDS011;34679;51.436;-2.518;2024-02-21T10:24:46;1.75;;;0.35;;
48859;SDS011;34679;51.436;-2.518;2024-02-21T10:27:12;0.60;;;0.20;;
48859;SDS011;34679;51.436;-2.518;2024-02-21T10:29:38;1.92;;;0.40;;
48859;SDS011;34679;51.436;-2.518;2024-02-21T10:32:08;1.13;;;0.30;;
48859;SDS011;34679;51.436;-2.518;2024-02-21T10:34:38;2.65;;;0.38;;
48859;SDS011;34679;51.436;-2.518;2024-02-21T10:37:06;1.38;;;0.40;;
48859;SDS011;34679;51.436;-2.518;2024-02-21T10:39:39;2.92;;;0.43;;
48859;SDS011;34679;51.436;-2.518;2024-02-21T10:42:06;0.63;;;0.32;;
48859;SDS011;34679;51.436;-2.518;2024-02-21T10:44:36;1.10;;;0.38;;
48859;SDS011;34679;51.436;-2.518;2024-02-21T10:47:11;1.98;;;0.40;;
48859;SDS011;34679;51.436;-2.518;2024-02-21T10:49:42;1.20;;;0.52;;
48859;SDS011;34679;51.436;-2.518;2024-02-21T10:52:13;3.50;;;0.50;;
48859;SDS011;34679;51.436;-2.518;2024-02-21T10:54:55;4.60;;;0.40;;
48859;SDS011;34679;51.436;-2.518;2024-02-21T10:57:25;0.80;;;0.32;;
48859;SDS011;34679;51.436;-2.518;2024-02-21T10:59:53;4.07;;;0.52;;
48859;SDS011;34679;51.436;-2.518;2024-02-21T11:02:19;0.88;;;0.38;;
48859;SDS011;34679;51.436;-2.518;2024-02-21T11:04:46;1.52;;;0.40;;
48859;SDS011;34679;51.436;-2.518;2024-02-21T11:07:12;1.33;;;0.38;;
48859;SDS011;34679;51.436;-2.518;2024-02-21T11:09:40;2.25;;;0.50;;
48859;SDS011;34679;51.436;-2.518;2024-02-21T11:12:23;2.25;;;0.25;;
48859;SDS011;34679;51.436;-2.518;2024-02-21T11:14:50;1.35;;;0.50;;
48859;SDS011;34679;51.436;-2.518;2024-02-21T11:17:16;3.28;;;0.50;;
48859;SDS011;34679;51.436;-2.518;2024-02-21T11:19:43;0.65;;;0.20;;
48859;SDS011;34679;51.436;-2.518;2024-02-21T11:22:15;1.05;;;0.30;;
48859;SDS011;34679;51.436;-2.518;2024-02-21T11:24:42;3.50;;;0.30;;
48859;SDS011;34679;51.436;-2.518;2024-02-21T11:27:15;1.88;;;0.20;;
48859;SDS011;34679;51.436;-2.518;2024-02-21T11:29:45;3.78;;;0.60;;
48859;SDS011;34679;51.436;-2.518;2024-02-21T11:32:14;1.08;;;0.30;;
48859;SDS011;34679;51.436;-2.518;2024-02-21T11:34:41;0.77;;;0.30;;
48859;SDS011;34679;51.436;-2.518;2024-02-21T11:37:29;1.23;;;0.30;;
48859;SDS011;34679;51.436;-2.518;2024-02-21T11:39:56;2.70;;;0.65;;
48859;SDS011;34679;51.436;-2.518;2024-02-21T11:42:22;2.95;;;0.43;;
48859;SDS011;34679;51.436;-2.518;2024-02-21T11:44:50;2.90;;;0.40;;
48859;SDS011;34679;51.436;-2.518;2024-02-21T11:47:17;7.80;;;0.68;;
48859;SDS011;34679;51.436;-2.518;2024-02-21T11:49:47;1.75;;;0.30;;
48859;SDS011;34679;51.436;-2.518;2024-02-21T11:52:15;3.08;;;0.57;;
48859;SDS011;34679;51.436;-2.518;2024-02-21T11:54:43;1.38;;;0.50;;
48859;SDS011;34679;51.436;-2.518;2024-02-21T11:57:09;2.97;;;0.52;;
48859;SDS011;34679;51.436;-2.518;2024-02-21T11:59:36;4.85;;;0.70;;
48859;SDS011;34679;51.436;-2.518;2024-02-21T12:02:02;0.68;;;0.50;;
48859;SDS011;34679;51.436;-2.518;2024-02-21T12:04:28;1.40;;;0.30;;
48859;SDS011;34679;51.436;-2.518;2024-02-21T12:06:57;1.60;;;0.28;;
48859;SDS011;34679;51.436;-2.518;2024-02-21T12:09:24;2.63;;;0.60;;
48859;SDS011;34679;51.436;-2.518;2024-02-21T12:12:00;5.22;;;0.95;;
48859;SDS011;34679;51.436;-2.518;2024-02-21T12:14:30;3.05;;;0.50;;
48859;SDS011;34679;51.436;-2.518;2024-02-21T12:16:57;1.25;;;0.40;;
48859;SDS011;34679;51.436;-2.518;2024-02-21T12:19:28;5.30;;;0.88;;
48859;SDS011;34679;51.436;-2.518;2024-02-21T12:21:55;2.38;;;0.65;;
48859;SDS011;34679;51.436;-2.518;2024-02-21T12:26:49;0.55;;;0.40;;
48859;SDS011;34679;51.436;-2.518;2024-02-21T12:29:19;4.13;;;0.60;;
48859;SDS011;34679;51.436;-2.518;2024-02-21T12:31:45;5.63;;;1.63;;
48859;SDS011;34679;51.436;-2.518;2024-02-21T12:34:11;6.15;;;1.02;;
48859;SDS011;34679;51.436;-2.518;2024-02-21T12:36:44;6.70;;;0.55;;
48859;SDS011;34679;51.436;-2.518;2024-02-21T12:39:13;4.68;;;0.47;;
48859;SDS011;34679;51.436;-2.518;2024-02-21T12:41:39;3.05;;;0.52;;
48859;SDS011;34679;51.436;-2.518;2024-02-21T12:44:10;2.63;;;0.40;;
48859;SDS011;34679;51.436;-2.518;2024-02-21T12:47:15;2.50;;;0.60;;
48859;SDS011;34679;51.436;-2.518;2024-02-21T12:49:41;4.95;;;0.40;;
48859;SDS011;34679;51.436;-2.518;2024-02-21T12:52:07;2.17;;;0.50;;
48859;SDS011;34679;51.436;-2.518;2024-02-21T12:54:33;3.08;;;0.50;;
48859;SDS011;34679;51.436;-2.518;2024-02-21T12:56:59;4.18;;;0.70;;
48859;SDS011;34679;51.436;-2.518;2024-02-21T12:59:27;3.83;;;0.57;;
48859;SDS011;34679;51.436;-2.518;2024-02-21T13:01:53;4.13;;;0.60;;
48859;SDS011;34679;51.436;-2.518;2024-02-21T13:04:19;3.80;;;1.15;;
48859;SDS011;34679;51.436;-2.518;2024-02-21T13:06:47;2.83;;;0.88;;
48859;SDS011;34679;51.436;-2.518;2024-02-21T13:09:14;4.30;;;0.60;;
48859;SDS011;34679;51.436;-2.518;2024-02-21T13:11:40;5.25;;;0.88;;
48859;SDS011;34679;51.436;-2.518;2024-02-21T13:14:07;4.43;;;1.30;;
48859;SDS011;34679;51.436;-2.518;2024-02-21T13:16:33;4.28;;;1.13;;
48859;SDS011;34679;51.436;-2.518;2024-02-21T13:19:04;5.03;;;1.00;;
48859;SDS011;34679;51.436;-2.518;2024-02-21T13:21:30;4.15;;;0.90;;
48859;SDS011;34679;51.436;-2.518;2024-02-21T13:23:56;6.18;;;1.30;;
48859;SDS011;34679;51.436;-2.518;2024-02-21T13:26:22;6.03;;;0.80;;
48859;SDS011;34679;51.436;-2.518;2024-02-21T13:28:47;4.03;;;1.15;;
48859;SDS011;34679;51.436;-2.518;2024-02-21T13:31:14;2.53;;;0.80;;
48859;SDS011;34679;51.436;-2.518;2024-02-21T13:33:41;3.20;;;0.68;;
48859;SDS011;34679;51.436;-2.518;2024-02-21T13:36:07;4.63;;;1.35;;
48859;SDS011;34679;51.436;-2.518;2024-02-21T13:38:33;6.47;;;0.93;;
48859;SDS011;34679;51.436;-2.518;2024-02-21T13:40:58;2.15;;;0.80;;
48859;SDS011;34679;51.436;-2.518;2024-02-21T13:43:25;3.03;;;0.82;;
48859;SDS011;34679;51.436;-2.518;2024-02-21T13:45:58;5.95;;;0.88;;
48859;SDS011;34679;51.436;-2.518;2024-02-21T13:48:25;2.88;;;0.60;;
48859;SDS011;34679;51.436;-2.518;2024-02-21T13:50:52;0.57;;;0.25;;
48859;SDS011;34679;51.436;-2.518;2024-02-21T13:53:17;2.80;;;0.77;;
48859;SDS011;34679;51.436;-2.518;2024-02-21T13:55:46;2.25;;;0.50;;
48859;SDS011;34679;51.436;-2.518;2024-02-21T13:58:12;2.28;;;0.40;;
48859;SDS011;34679;51.436;-2.518;2024-02-21T14:00:38;3.72;;;0.65;;
48859;SDS011;34679;51.436;-2.518;2024-02-21T14:03:03;2.90;;;0.40;;
48859;SDS011;34679;51.436;-2.518;2024-02-21T14:05:29;1.38;;;0.50;;
48859;SDS011;34679;51.436;-2.518;2024-02-21T14:07:55;1.73;;;0.43;;
48859;SDS011;34679;51.436;-2.518;2024-02-21T14:10:21;1.20;;;0.50;;
48859;SDS011;34679;51.436;-2.518;2024-02-21T14:12:47;0.55;;;0.30;;
48859;SDS011;34679;51.436;-2.518;2024-02-21T14:15:13;1.33;;;0.30;;
48859;SDS011;34679;51.436;-2.518;2024-02-21T14:17:39;1.50;;;0.40;;
48859;SDS011;34679;51.436;-2.518;2024-02-21T14:20:06;2.70;;;0.70;;
48859;SDS011;34679;51.436;-2.518;2024-02-21T14:22:33;3.40;;;0.52;;
48859;SDS011;34679;51.436;-2.518;2024-02-21T14:24:59;7.65;;;1.05;;
48859;SDS011;34679;51.436;-2.518;2024-02-21T14:27:25;8.27;;;1.27;;
48859;SDS011;34679;51.436;-2.518;2024-02-21T14:29:51;4.78;;;1.13;;
48859;SDS011;34679;51.436;-2.518;2024-02-21T14:32:18;7.07;;;1.10;;
48859;SDS011;34679;51.436;-2.518;2024-02-21T14:34:45;14.40;;;2.53;;
48859;SDS011;34679;51.436;-2.518;2024-02-21T14:37:10;9.93;;;1.45;;
48859;SDS011;34679;51.436;-2.518;2024-02-21T14:39:37;13.93;;;2.05;;
48859;SDS011;34679;51.436;-2.518;2024-02-21T14:42:02;18.67;;;2.10;;
48859;SDS011;34679;51.436;-2.518;2024-02-21T14:44:28;15.13;;;2.17;;